Arleta, California
Current Conditions -  °F | °C
As of 12:53 AM on Saturday 29 Nov 2014 (Local Time) from KBUR Reporting Station
Clear Clear  
Wind Chill: 53°   Ceiling: Unl
Heat Index: 53°   Visibility: 10mi
Dew Point: 34°   Wind: 0mph
Humidity: 48%   Direction: NA
Pressure: 29.89"   Gusts: NA
Location:  34.2574°N, 118.255°W
Report Text: KBUR 290853Z 00000KT 10SM CLR 12/01 A2989 RMK AO2 SLP109 T01170011 57006
Loading
Personal Weather Stations






























Interactive Weather Map New forecast layout! Learn more

10-Day Weather Forecast

Advertisements
Track Severe Weather on mobile